の過去48時間の天気

Bodo Vi

現在時刻: 9/23 00:56 CEST (9/22 22:56 UTC) 以下の時間は現地時間です。

過去48時間のMETAR気象情報
時間 風向 風速(m/s) 視程 気温(℃) 湿度(%) 気圧(hPa) 天気現象
23 00:50 南西 4 10km以上 9 87 1000 弱いしゅう雨
23 00:20 南南西 6 10km以上 9 87 1000 弱いしゅう雨
22 23:50 南南西 8 10km以上 9 87 1000 弱いしゅう雨
22 23:20 南西 12 10km以上 9 87 1000 弱いしゅう雨
22 22:50 南西 9 10km以上 10 76 1000 弱いしゅう雨
22 22:20 南南西 5 10km以上 11 67 1000 弱いしゅう雨
22 21:50 南南西 4 10km以上 10 71 1000
22 21:20 5 10km以上 11 62 1000
22 20:50 5 10km以上 11 62 1001
22 20:20 南南西 5 10km以上 11 67 1001
22 19:50 南南西 8 10km以上 11 62 1001
22 19:20 南西 11 10km以上 11 67 1001
22 18:50 南西 13 10km以上 12 67 1001
22 18:20 南西 9 10km以上 12 67 1001
22 17:50 南西 9 10km以上 12 71 1001
22 17:20 南西 10 10km以上 11 76 1002 周辺でしゅう雨
22 16:50 南西 9 10km以上 10 87 1002 弱い雨
22 16:20 南南西 8 10km以上 10 87 1002 弱い雨
22 15:50 南西 13 8000m 10 82 1002
22 15:20 南西 14 7000m 11 87 1001 弱い雨
22 14:50 4 7000m 12 88 1001
22 14:20 6 9000m 12 88 1000
22 13:50 6 10km以上 12 88 1000
22 13:20 8 10km以上 12 88 1000 弱い雨
22 12:50 8 10km以上 12 82 1000
22 12:20 9 10km以上 13 77 1000 弱い雨
22 11:50 10 10km以上 13 77 1000 弱い雨
22 11:20 9 10km以上 12 82 1000 弱い雨
22 10:50 10 10km以上 13 72 1000 弱い雨
22 10:20 10 10km以上 13 72 1000 弱い雨
22 09:50 9 10km以上 14 63 1000 弱い雨
22 09:20 11 10km以上 13 72 1000
22 08:50 11 10km以上 13 67 1000
22 08:20 11 10km以上 13 67 1001
22 07:50 11 10km以上 12 71 1001 弱い雨
22 07:20 南南東 8 10km以上 12 71 1001
22 06:50 南南東 8 10km以上 12 71 1002
22 06:20 南南東 7 10km以上 11 76 1002 弱い雨
22 05:50 南南東 7 10km以上 11 76 1002
22 05:20 南南東 8 10km以上 11 76 1003
22 04:50 南東 10 10km以上 11 71 1003
22 04:20 南東 11 10km以上 11 67 1003 弱い雨
22 03:50 南東 9 10km以上 11 71 1004 弱い雨
22 03:20 南南東 8 10km以上 11 71 1006
22 02:50 8 10km以上 11 71 1006 弱い雨
22 02:20 8 10km以上 11 62 1007 弱い雨
22 01:50 南東 7 10km以上 12 58 1007 弱い雨
22 01:20 南東 8 10km以上 12 58 1007
22 00:50 南東 9 10km以上 12 58 1008
22 00:20 南東 7 10km以上 11 62 1009 弱い雨
21 23:50 南南東 6 10km以上 11 62 1009
21 23:20 南東 8 10km以上 11 62 1009
21 22:50 南東 8 10km以上 11 62 1010
21 22:20 南東 8 10km以上 11 62 1010
21 21:50 南東 7 10km以上 11 62 1011
ENBO 222250Z 23008KT 9999 -SHRA FEW015 SCT030 BKN050 09/07 Q1000
ENBO 222220Z 21011KT 9999 -SHRA FEW015 SCT035 BKN045 09/07 Q1000
ENBO 222150Z 21016KT 9999 -SHRA FEW015 SCT030 BKN040 09/07 Q1000 TEMPO 22020G30KT SHRA
ENBO 222120Z 23024KT 9999 -SHRA FEW012 SCT030 BKN045 09/07 Q1000 TEMPO 22025G35KT SHRA
ENBO 222050Z 22017G30KT 9999 -SHRA FEW025 SCT030 BKN040 10/06 Q1000 TEMPO 22015KT FEW020CB BKN040
ENBO 222020Z 20009KT 9999 -SHRA FEW020 BKN050 11/05 Q1000 TEMPO 22015G25KT
ENBO 221950Z 20008KT 160V230 9999 FEW040 SCT055 10/05 Q1000 NOSIG
ENBO 221920Z 18009KT 9999 SCT060 BKN200 11/04 Q1000 NOSIG
ENBO 221850Z 18009KT 9999 SCT060 BKN200 11/04 Q1001 NOSIG
ENBO 221820Z 20010KT 9999 FEW050 SCT200 11/05 Q1001 TEMPO 23015G25KT
ENBO 221750Z 21015KT 9999 FEW050 SCT200 11/04 Q1001 TEMPO 23015G25KT
ENBO 221720Z 22021KT 9999 FEW020 SCT050 11/05 Q1001 TEMPO 23025G35KT
ENBO 221650Z 22025KT 9999 FEW020 SCT050 12/06 Q1001 TEMPO 23025G35KT
ENBO 221620Z 22018KT 9999 FEW020 SCT040 12/06 Q1001 TEMPO 23018G28KT
ENBO 221550Z 22017KT 9999 FEW012 SCT035 BKN150 12/07 Q1001 TEMPO 23018G28KT
ENBO 221520Z 22019KT 9999 VCSH FEW012 SCT025 BKN040 11/07 Q1002 TEMPO 23020G30KT RA
ENBO 221450Z 22017KT 9999 -RA FEW018 SCT025 BKN040 10/08 Q1002 TEMPO 23020G30KT RA
ENBO 221420Z 21016KT 9999 -RA FEW015 SCT025 BKN040 10/08 Q1002 TEMPO 23020G30KT RA
ENBO 221350Z 22025KT 8000 RA FEW012 SCT025 BKN035 10/07 Q1002 TEMPO 23025G35KT
ENBO 221320Z 23027KT 7000 -RA FEW008 SCT018 BKN030 11/09 Q1001 TEMPO 24027G37KT RA
ENBO 221250Z 19007KT 7000 RA FEW008 SCT025 BKN035 12/10 Q1001 TEMPO 20020G30KT NSW
ENBO 221220Z 18011KT 9000 RA FEW015 SCT030 BKN040 12/10 Q1000 TEMPO 20020G30KT NSW
ENBO 221150Z 17012KT 9999 RA FEW015 SCT030 BKN040 12/10 Q1000 TEMPO 20020G30KT NSW
ENBO 221120Z 17016KT 9999 -RA FEW015 SCT030 BKN040 12/10 Q1000 TEMPO 20020G30KT RA
ENBO 221050Z 18016KT 9999 RA FEW015 SCT030 BKN040 12/09 Q1000 TEMPO 20025G35KT NSW
ENBO 221020Z 17018KT 9999 -RA FEW015 BKN040 13/09 Q1000 TEMPO 20025G35KT RA
ENBO 220950Z 18019KT 9999 -RA FEW015 BKN040 13/09 Q1000 TEMPO 20025G35KT RA
ENBO 220920Z 18018KT 9999 -RA FEW015 BKN040 12/09 Q1000 TEMPO 20025G35KT RA
ENBO 220850Z 18020KT 9999 -RA FEW015 BKN040 13/08 Q1000 TEMPO 20025G35KT RA
ENBO 220820Z 18020KT 9999 -RA FEW020 BKN040 13/08 Q1000 TEMPO 20025G35KT RA
ENBO 220750Z 18017G27KT 9999 -RA FEW015 BKN043 14/07 Q1000 TEMPO 20028G38KT
ENBO 220720Z 18021KT 9999 FEW035 BKN043 13/08 Q1000 TEMPO 20025G40KT
ENBO 220650Z 18021KT 9999 FEW030 BKN040 13/07 Q1000 TEMPO 20025G40KT
ENBO 220620Z 18022KT 9999 FEW025 BKN040 13/07 Q1001 TEMPO 20025G40KT
ENBO 220550Z 18022KT 9999 -RA SCT030 BKN040 12/07 Q1001 TEMPO 20025G40KT
ENBO 220520Z 16015G26KT 9999 FEW030 BKN040 12/07 Q1001 BECMG 18025KT TEMPO 20025G40KT
ENBO 220450Z 15015KT 9999 FEW020 BKN040 12/07 Q1002 BECMG 18025KT TEMPO 20025G40KT
ENBO 220420Z 15013KT 9999 -RA FEW020 SCT030 BKN040 11/07 Q1002 BECMG 18025KT TEMPO 20025G40KT
ENBO 220350Z 15013KT 9999 RA FEW020 SCT030 BKN045 11/07 Q1002 BECMG 18025KT TEMPO 20025G40KT
ENBO 220320Z 15016KT 9999 RA FEW008 SCT025 OVC050 11/07 Q1003
ENBO 220250Z 14019G30KT 9999 RA SCT025 OVC050 11/06 Q1003
ENBO 220220Z 14021KT 9999 -RA SCT020 BKN055 11/05 Q1003
ENBO 220150Z 13017KT 9999 -RA SCT020 BKN055 11/06 Q1004
ENBO 220120Z 16015KT 9999 RA SCT020 BKN035 11/06 Q1006
ENBO 220050Z 18015KT 9999 -RA FEW020 BKN040 11/06 Q1006
ENBO 220020Z 17015KT 140V200 9999 -RA FEW020 BKN050 11/04 Q1007
ENBO 212350Z 14014KT 9999 -RA FEW025 BKN050 12/04 Q1007
ENBO 212320Z 14016KT 9999 FEW040 BKN055 12/04 Q1007
ENBO 212250Z 13017KT 9999 FEW040 BKN055 12/04 Q1008
ENBO 212220Z 14014KT 9999 -RA FEW040 BKN050 11/04 Q1009
ENBO 212150Z 16012KT 9999 FEW040 BKN060 11/04 Q1009 NOSIG
ENBO 212120Z 14016KT 9999 FEW040 BKN060 11/04 Q1009 NOSIG
ENBO 212050Z 13015KT 9999 FEW040 BKN060 11/04 Q1010 NOSIG
ENBO 212020Z 14015KT 9999 FEW040 SCT060 11/04 Q1010 NOSIG
ENBO 211950Z 13014KT 9999 FEW040 SCT060 11/04 Q1011 NOSIG